createdAt,value
2023-01-05T00:02:43.962Z,10.59
2023-01-05T00:05:29.638Z,10.58
2023-01-05T00:08:14.679Z,10.54
2023-01-05T00:11:30.682Z,10.56
2023-01-05T00:14:40.172Z,10.45
2023-01-05T00:17:44.112Z,10.43
2023-01-05T00:20:47.782Z,10.53
2023-01-05T00:23:33.013Z,10.52
2023-01-05T00:26:17.900Z,10.51
2023-01-05T00:29:03.134Z,10.46
2023-01-05T00:31:48.160Z,10.48
2023-01-05T00:34:33.084Z,10.45
2023-01-05T00:37:19.933Z,10.47
2023-01-05T00:40:10.651Z,10.42
2023-01-05T00:42:55.756Z,10.46
2023-01-05T00:45:41.055Z,10.47
2023-01-05T00:48:26.403Z,10.47
2023-01-05T00:51:11.657Z,10.48
2023-01-05T00:53:56.543Z,10.49
2023-01-05T00:56:41.838Z,10.47
2023-01-05T00:59:27.486Z,10.43
2023-01-05T01:02:12.473Z,10.43
2023-01-05T01:04:57.962Z,10.41
2023-01-05T01:07:42.932Z,10.40
2023-01-05T01:10:28.213Z,10.38
2023-01-05T01:13:13.229Z,10.32
2023-01-05T01:15:58.526Z,10.33
2023-01-05T01:18:43.816Z,10.20
2023-01-05T01:21:28.996Z,10.35
2023-01-05T01:24:20.207Z,10.35
2023-01-05T01:27:05.605Z,10.33
2023-01-05T01:29:50.654Z,10.34
2023-01-05T01:32:35.661Z,10.32
2023-01-05T01:35:20.446Z,10.32
2023-01-05T01:38:05.516Z,10.21
2023-01-05T01:40:51.270Z,10.11
2023-01-05T01:43:51.573Z,10.29
2023-01-05T01:46:36.568Z,10.28
2023-01-05T01:49:21.905Z,10.26
2023-01-05T01:52:07.824Z,10.23
2023-01-05T01:54:53.197Z,10.23
2023-01-05T01:57:39.340Z,10.33
2023-01-05T02:00:24.471Z,10.34
2023-01-05T02:03:10.454Z,10.35
2023-01-05T02:05:55.912Z,10.16
2023-01-05T02:08:41.034Z,10.35
2023-01-05T02:11:47.761Z,10.32
2023-01-05T02:14:53.326Z,10.34
2023-01-05T02:17:45.091Z,10.21
2023-01-05T02:20:45.855Z,10.36
2023-01-05T02:23:52.848Z,10.36
2023-01-05T02:27:01.486Z,10.26
2023-01-05T02:30:13.838Z,10.22
2023-01-05T02:33:27.985Z,10.19
2023-01-05T02:36:37.054Z,10.25
2023-01-05T02:39:41.917Z,10.18
2023-01-05T02:42:30.805Z,10.15
2023-01-05T02:45:16.882Z,10.13
2023-01-05T02:48:02.288Z,10.07
2023-01-05T02:51:00.923Z,10.08
2023-01-05T02:53:52.368Z,9.94
2023-01-05T02:57:02.960Z,10.03
2023-01-05T02:59:53.461Z,9.96
2023-01-05T03:02:42.105Z,9.94
2023-01-05T03:05:38.324Z,9.92
2023-01-05T03:08:32.361Z,9.96
2023-01-05T03:11:37.254Z,9.89
2023-01-05T03:14:28.347Z,9.86
2023-01-05T03:17:18.433Z,9.83
2023-01-05T03:20:04.917Z,9.83
2023-01-05T03:23:10.729Z,9.82
2023-01-05T03:26:14.901Z,9.65
2023-01-05T03:29:20.843Z,9.74
2023-01-05T03:32:35.123Z,9.71
2023-01-05T03:35:33.103Z,9.67
2023-01-05T03:38:34.021Z,9.67
2023-01-05T03:41:19.871Z,9.58
2023-01-05T03:44:06.083Z,9.46
2023-01-05T03:46:51.607Z,9.60
2023-01-05T03:49:37.542Z,9.54
2023-01-05T03:52:22.405Z,9.33
2023-01-05T03:55:07.939Z,9.44
2023-01-05T03:57:53.637Z,9.44
2023-01-05T04:00:38.661Z,9.45
2023-01-05T04:03:29.441Z,9.34
2023-01-05T04:06:17.531Z,9.28
2023-01-05T04:09:03.113Z,9.34
2023-01-05T04:11:47.972Z,9.34
2023-01-05T04:14:33.199Z,9.27
2023-01-05T04:17:18.433Z,9.22
2023-01-05T04:20:05.930Z,9.28
2023-01-05T04:22:51.334Z,9.27
2023-01-05T04:25:36.457Z,9.30
2023-01-05T04:28:21.613Z,9.31
2023-01-05T04:31:06.860Z,9.27
2023-01-05T04:33:52.142Z,9.18
2023-01-05T04:36:37.459Z,9.20
2023-01-05T04:39:22.643Z,9.23
2023-01-05T04:42:08.101Z,9.20
2023-01-05T04:44:53.334Z,9.14
2023-01-05T04:47:38.555Z,9.14
2023-01-05T04:50:24.182Z,9.20
2023-01-05T04:53:10.073Z,9.17
2023-01-05T04:55:55.177Z,9.16
2023-01-05T04:58:40.353Z,9.19
2023-01-05T05:01:26.404Z,9.18
2023-01-05T05:04:11.541Z,9.04
2023-01-05T05:06:56.765Z,9.12
2023-01-05T05:09:41.915Z,9.15
2023-01-05T05:12:26.838Z,9.14
2023-01-05T05:15:16.846Z,9.15
2023-01-05T05:18:08.680Z,9.14
2023-01-05T05:20:54.842Z,9.15
2023-01-05T05:23:39.969Z,9.04
2023-01-05T05:26:25.241Z,9.11
2023-01-05T05:29:10.271Z,9.04
2023-01-05T05:31:55.564Z,9.15
2023-01-05T05:34:40.840Z,9.16
2023-01-05T05:37:25.846Z,9.17
2023-01-05T05:40:12.277Z,9.19
2023-01-05T05:42:57.451Z,9.20
2023-01-05T05:45:49.708Z,9.18
2023-01-05T05:48:35.903Z,9.23
2023-01-05T05:51:21.229Z,9.20
2023-01-05T05:54:06.810Z,9.15
2023-01-05T05:56:51.772Z,9.27
2023-01-05T05:59:36.658Z,9.24
2023-01-05T06:02:21.952Z,9.17
2023-01-05T06:05:07.416Z,9.31
2023-01-05T06:07:52.864Z,9.35
2023-01-05T06:10:38.265Z,9.32
2023-01-05T06:13:24.276Z,9.31
2023-01-05T06:16:11.836Z,9.27
2023-01-05T06:18:57.346Z,9.34
2023-01-05T06:21:42.517Z,9.25
2023-01-05T06:24:27.733Z,9.37
2023-01-05T06:27:12.986Z,9.43
2023-01-05T06:29:58.333Z,9.42
2023-01-05T06:32:43.546Z,9.44
2023-01-05T06:35:28.843Z,9.46
2023-01-05T06:38:16.043Z,9.47
2023-01-05T06:41:00.935Z,9.47
2023-01-05T06:43:46.363Z,9.50
2023-01-05T06:46:31.726Z,9.41
2023-01-05T06:49:16.540Z,9.41
2023-01-05T06:52:01.586Z,9.46
2023-01-05T06:54:46.744Z,9.38
2023-01-05T06:57:31.862Z,9.48
2023-01-05T07:00:17.073Z,9.45
2023-01-05T07:03:02.066Z,9.45
2023-01-05T07:05:47.228Z,9.47
2023-01-05T07:08:32.464Z,9.49
2023-01-05T07:11:17.548Z,9.40
2023-01-05T07:14:02.689Z,9.42
2023-01-05T07:16:47.721Z,9.48
2023-01-05T07:19:32.652Z,9.52
2023-01-05T07:22:18.302Z,9.50
2023-01-05T07:25:03.653Z,9.55
2023-01-05T07:27:54.686Z,9.55
2023-01-05T07:30:39.629Z,9.48
2023-01-05T07:33:24.658Z,9.49
2023-01-05T07:36:09.887Z,9.50
2023-01-05T07:38:57.683Z,9.52
2023-01-05T07:41:45.124Z,9.52
2023-01-05T07:44:30.126Z,9.54
2023-01-05T07:47:15.462Z,9.49
2023-01-05T07:50:00.599Z,9.54
2023-01-05T07:52:45.743Z,9.56
2023-01-05T07:55:30.622Z,9.57
2023-01-05T07:58:15.652Z,9.59
2023-01-05T08:01:08.808Z,9.57
2023-01-05T08:03:54.465Z,9.52
2023-01-05T08:06:39.912Z,9.60
2023-01-05T08:09:43.880Z,9.98
2023-01-05T08:13:07.496Z,10.06
2023-01-05T08:15:54.406Z,10.05
2023-01-05T08:18:39.533Z,10.01
2023-01-05T08:21:25.320Z,9.91
2023-01-05T08:24:10.282Z,9.78
2023-01-05T08:26:55.632Z,9.82
2023-01-05T08:29:42.070Z,9.86
2023-01-05T08:32:26.928Z,9.80
2023-01-05T08:35:11.925Z,9.87
2023-01-05T08:37:57.254Z,9.85
2023-01-05T08:40:42.495Z,9.94
2023-01-05T08:43:27.887Z,9.96
2023-01-05T08:46:13.171Z,9.98
2023-01-05T08:49:01.553Z,9.91
2023-01-05T08:51:46.848Z,10.04
2023-01-05T08:54:32.133Z,10.06
2023-01-05T08:57:17.247Z,9.99
2023-01-05T09:00:03.456Z,10.10
2023-01-05T09:02:49.200Z,10.14
2023-01-05T09:05:34.088Z,10.10
2023-01-05T09:08:18.987Z,10.20
2023-01-05T09:11:16.446Z,10.26
2023-01-05T09:14:04.849Z,10.29
2023-01-05T09:17:06.441Z,10.29
2023-01-05T09:19:52.280Z,10.36
2023-01-05T09:22:37.323Z,10.41
2023-01-05T09:25:22.643Z,10.46
2023-01-05T09:28:08.009Z,10.43
2023-01-05T09:30:53.424Z,10.52
2023-01-05T09:33:39.925Z,10.52
2023-01-05T09:36:25.825Z,10.63
2023-01-05T09:39:10.855Z,10.54
2023-01-05T09:42:02.859Z,10.65
2023-01-05T09:44:58.409Z,10.69
2023-01-05T09:47:46.716Z,10.75
2023-01-05T09:50:31.967Z,10.76
2023-01-05T09:53:29.751Z,10.79
2023-01-05T09:59:42.978Z,10.90
2023-01-05T10:02:37.557Z,10.87
2023-01-05T10:05:23.944Z,11.00
2023-01-05T10:08:32.573Z,11.01
2023-01-05T10:11:41.307Z,11.06
2023-01-05T10:14:33.900Z,11.07
2023-01-05T10:21:01.745Z,11.16
2023-01-05T10:24:24.390Z,11.21
2023-01-05T10:27:27.255Z,11.30
2023-01-05T10:30:23.947Z,11.33
2023-01-05T10:33:51.654Z,11.40
2023-01-05T10:37:07.558Z,11.38
2023-01-05T10:39:59.444Z,11.25
2023-01-05T10:42:53.438Z,11.35
2023-01-05T10:45:51.357Z,11.36
2023-01-05T10:48:43.425Z,11.27
2023-01-05T10:51:33.659Z,11.41
2023-01-05T10:54:29.292Z,11.45
2023-01-05T10:57:34.780Z,11.54
2023-01-05T11:00:22.651Z,11.57
2023-01-05T11:03:15.068Z,11.67
2023-01-05T11:06:00.542Z,11.69
2023-01-05T11:08:46.335Z,11.77
2023-01-05T11:11:31.550Z,11.85
2023-01-05T11:14:16.868Z,11.78
2023-01-05T11:17:06.120Z,11.88
2023-01-05T11:19:53.830Z,11.88
2023-01-05T11:22:47.953Z,11.90
2023-01-05T11:25:33.520Z,11.89
2023-01-05T11:28:18.596Z,11.96
2023-01-05T11:31:05.933Z,12.03
2023-01-05T11:33:58.062Z,11.93
2023-01-05T11:36:50.931Z,11.96
2023-01-05T11:39:45.929Z,11.97
2023-01-05T11:42:34.171Z,11.77
2023-01-05T11:45:25.719Z,11.86
2023-01-05T11:48:19.577Z,11.94
2023-01-05T11:51:05.288Z,12.00
2023-01-05T11:53:50.612Z,12.08
2023-01-05T11:56:35.568Z,12.11
2023-01-05T11:59:30.328Z,12.06
2023-01-05T12:02:30.590Z,12.09
2023-01-05T12:05:26.445Z,12.21
2023-01-05T12:08:17.531Z,12.19
2023-01-05T12:11:16.770Z,12.19
2023-01-05T12:14:07.924Z,12.25
2023-01-05T12:16:56.873Z,12.10
2023-01-05T12:20:20.451Z,12.09
2023-01-05T12:23:32.201Z,12.09
2023-01-05T12:26:27.317Z,12.23
2023-01-05T12:31:29.411Z,12.27
2023-01-05T12:36:19.374Z,12.36
2023-01-05T12:39:17.397Z,12.28
2023-01-05T12:42:08.586Z,12.30
2023-01-05T12:45:18.763Z,12.30
2023-01-05T12:48:09.666Z,12.35
2023-01-05T12:51:04.907Z,12.49
2023-01-05T12:54:02.238Z,12.56
2023-01-05T12:56:51.748Z,12.54
2023-01-05T12:59:52.580Z,12.53
2023-01-05T13:02:41.796Z,12.38
2023-01-05T13:05:46.748Z,12.54
2023-01-05T13:08:51.116Z,12.55
2023-01-05T13:11:41.607Z,12.53
2023-01-05T13:14:32.431Z,12.49
2023-01-05T13:17:30.528Z,12.43
2023-01-05T13:20:38.331Z,12.51
2023-01-05T13:23:26.787Z,12.52
2023-01-05T13:26:16.494Z,12.45
2023-01-05T13:29:01.603Z,12.45
2023-01-05T13:32:16.002Z,12.57
2023-01-05T13:35:42.724Z,12.46
2023-01-05T13:38:33.572Z,12.60
2023-01-05T13:41:32.516Z,12.61
2023-01-05T13:44:38.936Z,12.49
2023-01-05T13:47:46.371Z,12.55
2023-01-05T13:50:50.427Z,12.50
2023-01-05T13:53:40.055Z,12.54
2023-01-05T13:56:26.486Z,12.51
2023-01-05T13:59:44.423Z,12.33
2023-01-05T14:02:38.981Z,12.49
2023-01-05T14:05:42.795Z,12.49
2023-01-05T14:08:35.905Z,12.47
2023-01-05T14:11:23.753Z,12.45
2023-01-05T14:14:27.325Z,12.43
2023-01-05T14:17:12.594Z,12.43
2023-01-05T14:19:57.847Z,12.32
2023-01-05T14:22:43.880Z,12.40
2023-01-05T14:25:38.580Z,12.36
2023-01-05T14:28:30.154Z,12.35
2023-01-05T14:31:16.581Z,12.33
2023-01-05T14:34:04.926Z,12.32
2023-01-05T14:37:01.877Z,12.26
2023-01-05T14:39:47.870Z,12.30
2023-01-05T14:42:39.753Z,12.21
2023-01-05T14:45:36.997Z,12.27
2023-01-05T14:48:31.572Z,12.23
2023-01-05T14:51:18.693Z,12.21
2023-01-05T14:54:05.488Z,12.13
2023-01-05T14:57:35.184Z,12.22
2023-01-05T15:00:31.495Z,12.18
2023-01-05T15:03:28.546Z,12.17
2023-01-05T15:06:19.307Z,12.10
2023-01-05T15:09:42.203Z,12.02
2023-01-05T15:12:27.351Z,12.03
2023-01-05T15:15:29.947Z,11.96
2023-01-05T15:18:56.894Z,11.98
2023-01-05T15:22:08.234Z,11.98
2023-01-05T15:25:10.531Z,11.95
2023-01-05T15:28:26.079Z,11.91
2023-01-05T15:31:20.444Z,11.91
2023-01-05T15:34:30.509Z,11.87
2023-01-05T15:37:20.378Z,11.80
2023-01-05T15:40:07.706Z,11.73
2023-01-05T15:43:04.179Z,11.71
2023-01-05T15:45:53.396Z,11.59
2023-01-05T15:48:45.175Z,11.57
2023-01-05T15:51:32.677Z,11.64
2023-01-05T15:54:27.754Z,11.54
2023-01-05T15:57:21.126Z,11.62
2023-01-05T16:00:21.943Z,11.62
2023-01-05T16:03:30.675Z,11.61
2023-01-05T16:06:20.177Z,11.56
2023-01-05T16:09:19.334Z,11.44
2023-01-05T16:12:09.255Z,11.38
2023-01-05T16:15:01.689Z,11.53
2023-01-05T16:17:47.667Z,11.42
2023-01-05T16:20:34.673Z,11.49
2023-01-05T16:23:44.568Z,11.48
2023-01-05T16:26:29.912Z,11.47
2023-01-05T16:29:33.516Z,11.43
2023-01-05T16:32:41.753Z,11.39
2023-01-05T16:35:38.092Z,11.29
2023-01-05T16:38:26.575Z,11.38
2023-01-05T16:41:21.177Z,11.28
2023-01-05T16:44:13.294Z,11.36
2023-01-05T16:47:10.469Z,11.33
2023-01-05T16:49:58.305Z,11.26
2023-01-05T16:52:54.278Z,11.31
2023-01-05T16:55:39.818Z,11.20
2023-01-05T16:58:31.764Z,11.20
2023-01-05T17:01:33.866Z,11.26
2023-01-05T17:04:19.107Z,11.24
2023-01-05T17:07:04.117Z,11.20
2023-01-05T17:09:49.908Z,11.12
2023-01-05T17:12:35.566Z,11.10
2023-01-05T17:15:24.472Z,11.10
2023-01-05T17:18:18.255Z,11.02
2023-01-05T17:21:05.126Z,10.96
2023-01-05T17:23:53.958Z,10.87
2023-01-05T17:26:43.601Z,10.84
2023-01-05T17:29:32.523Z,10.88
2023-01-05T17:32:17.668Z,10.84
2023-01-05T17:35:02.827Z,10.80
2023-01-05T17:37:48.127Z,10.77
2023-01-05T17:40:33.328Z,10.72
2023-01-05T17:43:18.963Z,10.72
2023-01-05T17:46:04.507Z,10.72
2023-01-05T17:48:49.905Z,10.73
2023-01-05T17:51:35.240Z,10.71
2023-01-05T17:54:20.408Z,10.67
2023-01-05T17:57:05.913Z,10.59
2023-01-05T17:59:51.256Z,10.57
2023-01-05T18:02:37.051Z,10.55
2023-01-05T18:05:22.536Z,10.45
2023-01-05T18:08:07.686Z,10.56
2023-01-05T18:10:53.750Z,10.46
2023-01-05T18:13:38.679Z,10.55
2023-01-05T18:16:25.037Z,10.54
2023-01-05T18:19:11.737Z,10.52
2023-01-05T18:21:56.586Z,10.50
2023-01-05T18:24:42.699Z,10.56
2023-01-05T18:27:27.519Z,10.48
2023-01-05T18:30:13.346Z,10.54
2023-01-05T18:32:58.738Z,10.45
2023-01-05T18:35:44.172Z,10.51
2023-01-05T18:38:29.468Z,10.41
2023-01-05T18:41:14.567Z,10.46
2023-01-05T18:44:00.098Z,10.46
2023-01-05T18:46:45.471Z,10.48
2023-01-05T18:49:30.816Z,10.49
2023-01-05T18:52:16.176Z,10.48
2023-01-05T18:55:01.863Z,10.49
2023-01-05T18:57:46.894Z,10.49
2023-01-05T19:00:33.194Z,10.59
2023-01-05T19:03:18.228Z,10.49
2023-01-05T19:06:15.807Z,10.65
2023-01-05T19:09:03.206Z,10.66
2023-01-05T19:11:48.643Z,10.66
2023-01-05T19:14:33.592Z,10.61
2023-01-05T19:17:18.816Z,10.69
2023-01-05T19:20:04.239Z,10.71
2023-01-05T19:22:49.405Z,10.73
2023-01-05T19:25:34.395Z,10.71
2023-01-05T19:28:19.646Z,10.73
2023-01-05T19:31:10.392Z,10.74
2023-01-05T19:33:58.903Z,10.74
2023-01-05T19:36:44.124Z,10.73
2023-01-05T19:39:29.162Z,10.74
2023-01-05T19:42:14.142Z,10.71
2023-01-05T19:44:59.753Z,10.77
2023-01-05T19:47:44.958Z,10.70
2023-01-05T19:50:29.942Z,10.67
2023-01-05T19:53:15.166Z,10.76
2023-01-05T19:56:08.635Z,10.78
2023-01-05T19:58:56.145Z,10.80
2023-01-05T20:01:41.441Z,10.76
2023-01-05T20:04:27.040Z,10.77
2023-01-05T20:07:12.582Z,10.77
2023-01-05T20:09:58.202Z,10.78
2023-01-05T20:12:43.300Z,10.78
2023-01-05T20:15:28.412Z,10.76
2023-01-05T20:18:13.697Z,10.72
2023-01-05T20:21:00.560Z,10.77
2023-01-05T20:23:45.495Z,10.69
2023-01-05T20:26:31.186Z,10.77
2023-01-05T20:29:18.211Z,10.80
2023-01-05T20:32:10.822Z,10.80
2023-01-05T20:35:00.116Z,10.80
2023-01-05T20:37:45.358Z,10.78
2023-01-05T20:40:30.358Z,10.81
2023-01-05T20:43:15.651Z,10.82
2023-01-05T20:46:00.896Z,10.81
2023-01-05T20:48:46.019Z,10.75
2023-01-05T20:51:31.286Z,10.79
2023-01-05T20:54:16.870Z,10.79
2023-01-05T20:57:02.141Z,10.70
2023-01-05T20:59:47.683Z,10.79
2023-01-05T21:02:32.621Z,10.79
2023-01-05T21:05:17.769Z,10.71
2023-01-05T21:08:02.737Z,10.81
2023-01-05T21:10:53.569Z,10.83
2023-01-05T21:13:38.695Z,10.79
2023-01-05T21:16:25.353Z,10.84
2023-01-05T21:19:17.175Z,10.84
2023-01-05T21:22:02.510Z,10.76
2023-01-05T21:24:47.514Z,10.84
2023-01-05T21:27:32.470Z,10.85
2023-01-05T21:30:17.687Z,10.77
2023-01-05T21:33:03.167Z,10.88
2023-01-05T21:35:53.401Z,10.88
2023-01-05T21:39:02.299Z,10.89
2023-01-05T21:42:02.082Z,10.79
2023-01-05T21:44:47.973Z,10.88
2023-01-05T21:47:35.837Z,10.88
2023-01-05T21:50:39.284Z,10.90
2023-01-05T21:53:43.235Z,10.88
2023-01-05T21:56:29.796Z,10.79
2023-01-05T21:59:14.843Z,10.86
2023-01-05T22:02:00.167Z,10.88
2023-01-05T22:04:46.034Z,10.87
2023-01-05T22:07:31.306Z,10.89
2023-01-05T22:10:17.439Z,10.78
2023-01-05T22:13:03.048Z,10.87
2023-01-05T22:15:48.491Z,10.87
2023-01-05T22:18:33.879Z,10.78
2023-01-05T22:21:19.093Z,10.86
2023-01-05T22:24:05.184Z,10.88
2023-01-05T22:26:50.190Z,10.87
2023-01-05T22:29:35.401Z,10.83
2023-01-05T22:32:20.502Z,10.77
2023-01-05T22:35:05.947Z,10.74
2023-01-05T22:37:53.165Z,10.71
2023-01-05T22:40:38.443Z,10.57
2023-01-05T22:43:23.717Z,10.59
2023-01-05T22:46:12.820Z,10.58
2023-01-05T22:48:59.115Z,10.58
2023-01-05T22:51:46.261Z,10.46
2023-01-05T22:54:31.666Z,10.55
2023-01-05T22:57:16.615Z,10.49
2023-01-05T23:00:01.637Z,10.51
2023-01-05T23:02:46.818Z,10.46
2023-01-05T23:05:32.041Z,10.44
2023-01-05T23:08:17.374Z,10.50
2023-01-05T23:11:05.963Z,10.43
2023-01-05T23:13:52.513Z,10.52
2023-01-05T23:16:38.441Z,10.51
2023-01-05T23:19:23.769Z,10.53
2023-01-05T23:22:10.781Z,10.54
2023-01-05T23:24:56.796Z,10.54
2023-01-05T23:27:41.663Z,10.45
2023-01-05T23:30:26.569Z,10.56
2023-01-05T23:33:11.960Z,10.57
2023-01-05T23:35:57.148Z,10.55
2023-01-05T23:38:42.853Z,10.57
2023-01-05T23:41:27.809Z,10.54
2023-01-05T23:44:14.116Z,10.51
2023-01-05T23:46:59.069Z,10.50
2023-01-05T23:49:44.152Z,10.40
2023-01-05T23:52:29.312Z,10.40
2023-01-05T23:55:14.318Z,10.41
2023-01-05T23:57:59.617Z,10.54
